createdAt,value
2018-12-30T00:01:47.819Z,96679.00
2018-12-30T00:04:23.289Z,96662.00
2018-12-30T00:07:00.758Z,96672.00
2018-12-30T00:09:34.402Z,96670.00
2018-12-30T00:12:08.167Z,96671.00
2018-12-30T00:14:44.161Z,96671.00
2018-12-30T00:17:21.054Z,96677.00
2018-12-30T00:19:56.394Z,96672.00
2018-12-30T00:22:29.264Z,96694.00
2018-12-30T00:25:01.954Z,96677.00
2018-12-30T00:27:38.189Z,96677.00
2018-12-30T00:30:13.707Z,96667.00
2018-12-30T00:32:47.516Z,96679.00
2018-12-30T00:35:22.575Z,96667.00
2018-12-30T00:37:57.614Z,96662.00
2018-12-30T00:40:31.835Z,96649.00
2018-12-30T00:43:05.637Z,96649.00
2018-12-30T00:45:44.015Z,96649.00
2018-12-30T00:48:20.103Z,96646.00
2018-12-30T00:50:54.894Z,96647.00
2018-12-30T00:53:29.442Z,96651.00
2018-12-30T00:56:03.146Z,96644.00
2018-12-30T00:58:37.818Z,96647.00
2018-12-30T01:01:11.728Z,96644.00
2018-12-30T01:03:47.065Z,96647.00
2018-12-30T01:06:21.230Z,96660.00
2018-12-30T01:08:55.076Z,96653.00
2018-12-30T01:11:29.601Z,96642.00
2018-12-30T01:14:02.673Z,96658.00
2018-12-30T01:16:38.900Z,96650.00
2018-12-30T01:19:16.500Z,96647.00
2018-12-30T01:21:51.006Z,96652.00
2018-12-30T01:24:26.306Z,96651.00
2018-12-30T01:27:00.883Z,96655.00
2018-12-30T01:29:38.585Z,96671.00
2018-12-30T01:32:13.603Z,96671.00
2018-12-30T01:34:46.805Z,96676.00
2018-12-30T01:37:21.286Z,96673.00
2018-12-30T01:39:55.274Z,96661.00
2018-12-30T01:42:29.626Z,96678.00
2018-12-30T01:45:02.562Z,96676.00
2018-12-30T01:47:35.420Z,96691.00
2018-12-30T01:50:08.838Z,96680.00
2018-12-30T01:52:41.521Z,96665.00
2018-12-30T01:55:14.556Z,96673.00
2018-12-30T01:57:52.299Z,96667.00
2018-12-30T02:00:29.051Z,96668.00
2018-12-30T02:03:03.470Z,96683.00
2018-12-30T02:05:37.341Z,96688.00
2018-12-30T02:08:10.017Z,96686.00
2018-12-30T02:10:43.073Z,96679.00
2018-12-30T02:13:16.832Z,96694.00
2018-12-30T02:15:51.049Z,96698.00
2018-12-30T02:18:24.594Z,96700.00
2018-12-30T02:20:58.146Z,96705.00
2018-12-30T02:23:31.744Z,96696.00
2018-12-30T02:26:04.878Z,96708.00
2018-12-30T02:28:42.305Z,96701.00
2018-12-30T02:31:15.498Z,96702.00
2018-12-30T02:33:49.263Z,96693.00
2018-12-30T02:36:22.617Z,96701.00
2018-12-30T02:38:57.036Z,96694.00
2018-12-30T02:41:29.958Z,96701.00
2018-12-30T02:44:04.334Z,96699.00
2018-12-30T02:46:39.427Z,96700.00
2018-12-30T02:49:17.598Z,96701.00
2018-12-30T02:51:51.930Z,96706.00
2018-12-30T02:54:24.062Z,96714.00
2018-12-30T02:56:57.916Z,96709.00
2018-12-30T02:59:30.607Z,96700.00
2018-12-30T03:02:06.672Z,96706.00
2018-12-30T03:04:42.580Z,96713.00
2018-12-30T03:07:18.753Z,96709.00
2018-12-30T03:09:53.320Z,96713.00
2018-12-30T03:12:30.122Z,96703.00
2018-12-30T03:15:04.534Z,96704.00
2018-12-30T03:17:42.987Z,96703.00
2018-12-30T03:20:16.013Z,96707.00
2018-12-30T03:22:48.936Z,96702.00
2018-12-30T03:25:22.343Z,96711.00
2018-12-30T03:28:01.045Z,96701.00
2018-12-30T03:30:38.537Z,96699.00
2018-12-30T03:33:11.252Z,96707.00
2018-12-30T03:35:46.669Z,96708.00
2018-12-30T03:38:20.854Z,96712.00
2018-12-30T03:40:55.293Z,96707.00
2018-12-30T03:43:29.226Z,96701.00
2018-12-30T03:46:05.207Z,96719.00
2018-12-30T03:48:39.271Z,96704.00
2018-12-30T03:51:14.238Z,96712.00
2018-12-30T03:53:46.752Z,96717.00
2018-12-30T03:56:21.729Z,96708.00
2018-12-30T03:58:58.372Z,96712.00
2018-12-30T04:01:34.321Z,96708.00
2018-12-30T04:04:08.918Z,96706.00
2018-12-30T04:06:42.000Z,96717.00
2018-12-30T04:09:15.477Z,96706.00
2018-12-30T04:11:48.332Z,96713.00
2018-12-30T04:14:21.919Z,96714.00
2018-12-30T04:16:57.907Z,96718.00
2018-12-30T04:19:34.478Z,96714.00
2018-12-30T04:22:07.032Z,96718.00
2018-12-30T04:24:40.536Z,96729.00
2018-12-30T04:27:14.236Z,96750.00
2018-12-30T04:29:47.327Z,96734.00
2018-12-30T04:32:21.141Z,96740.00
2018-12-30T04:34:55.002Z,96746.00
2018-12-30T04:37:29.167Z,96754.00
2018-12-30T04:40:03.090Z,96752.00
2018-12-30T04:42:37.150Z,96757.00
2018-12-30T04:45:10.788Z,96760.00
2018-12-30T04:47:45.377Z,96757.00
2018-12-30T04:50:19.578Z,96751.00
2018-12-30T04:52:52.592Z,96763.00
2018-12-30T04:55:25.506Z,96760.00
2018-12-30T04:57:58.109Z,96748.00
2018-12-30T05:00:32.580Z,96746.00
2018-12-30T05:03:06.950Z,96768.00
2018-12-30T05:05:41.438Z,96759.00
2018-12-30T05:08:15.064Z,96754.00
2018-12-30T05:10:48.513Z,96765.00
2018-12-30T05:13:22.375Z,96766.00
2018-12-30T05:15:55.834Z,96772.00
2018-12-30T05:18:29.219Z,96765.00
2018-12-30T05:21:02.745Z,96772.00
2018-12-30T05:23:36.007Z,96776.00
2018-12-30T05:26:09.787Z,96795.00
2018-12-30T05:28:44.211Z,96796.00
2018-12-30T05:31:18.082Z,96787.00
2018-12-30T05:33:54.373Z,96798.00
2018-12-30T05:36:28.941Z,96796.00
2018-12-30T05:39:05.395Z,96794.00
2018-12-30T05:41:39.157Z,96797.00
2018-12-30T05:44:11.973Z,96800.00
2018-12-30T05:46:45.193Z,96808.00
2018-12-30T05:49:18.648Z,96815.00
2018-12-30T05:51:52.661Z,96811.00
2018-12-30T05:54:27.540Z,96823.00
2018-12-30T05:57:01.968Z,96830.00
2018-12-30T05:59:35.433Z,96826.00
2018-12-30T06:02:07.960Z,96839.00
2018-12-30T06:04:41.696Z,96841.00
2018-12-30T06:07:15.513Z,96840.00
2018-12-30T06:09:49.742Z,96854.00
2018-12-30T06:12:22.662Z,96853.00
2018-12-30T06:14:55.904Z,96848.00
2018-12-30T06:17:29.593Z,96855.00
2018-12-30T06:20:03.008Z,96861.00
2018-12-30T06:22:36.198Z,96862.00
2018-12-30T06:25:08.398Z,96848.00
2018-12-30T06:27:40.633Z,96855.00
2018-12-30T06:30:14.727Z,96863.00
2018-12-30T06:32:50.217Z,96870.00
2018-12-30T06:35:24.404Z,96870.00
2018-12-30T06:37:58.525Z,96875.00
2018-12-30T06:40:32.772Z,96882.00
2018-12-30T06:43:07.112Z,96872.00
2018-12-30T06:45:40.671Z,96887.00
2018-12-30T06:48:13.428Z,96887.00
2018-12-30T06:50:47.006Z,96887.00
2018-12-30T06:53:19.877Z,96892.00
2018-12-30T06:55:52.376Z,96908.00
2018-12-30T06:58:25.473Z,96897.00
2018-12-30T07:00:58.909Z,96909.00
2018-12-30T07:03:33.215Z,96904.00
2018-12-30T07:06:07.649Z,96899.00
2018-12-30T07:08:42.403Z,96904.00
2018-12-30T07:11:16.815Z,96904.00
2018-12-30T07:13:50.780Z,96907.00
2018-12-30T07:16:24.411Z,96906.00
2018-12-30T07:18:58.379Z,96918.00
2018-12-30T07:21:32.189Z,96930.00
2018-12-30T07:24:04.608Z,96922.00
2018-12-30T07:26:37.524Z,96929.00
2018-12-30T07:29:11.191Z,96940.00
2018-12-30T07:31:45.125Z,96936.00
2018-12-30T07:34:18.892Z,96949.00
2018-12-30T07:36:52.867Z,96945.00
2018-12-30T07:39:27.004Z,96944.00
2018-12-30T07:42:06.207Z,96951.00
2018-12-30T07:44:45.122Z,96946.00
2018-12-30T07:47:19.748Z,96966.00
2018-12-30T07:49:53.140Z,96965.00
2018-12-30T07:52:26.137Z,96975.00
2018-12-30T07:55:00.221Z,96974.00
2018-12-30T07:57:33.361Z,96978.00
2018-12-30T08:00:08.270Z,96979.00
2018-12-30T08:02:43.208Z,96983.00
2018-12-30T08:05:16.908Z,96971.00
2018-12-30T08:07:50.610Z,96977.00
2018-12-30T08:10:24.589Z,96982.00
2018-12-30T08:12:59.312Z,96982.00
2018-12-30T08:15:33.932Z,96985.00
2018-12-30T08:18:07.415Z,96977.00
2018-12-30T08:20:40.673Z,97020.00
2018-12-30T08:23:13.038Z,96978.00
2018-12-30T08:25:45.307Z,96999.00
2018-12-30T08:28:25.060Z,97012.00
2018-12-30T08:30:55.387Z,97007.00
2018-12-30T08:33:29.969Z,97009.00
2018-12-30T08:36:03.680Z,97013.00
2018-12-30T08:38:37.535Z,97024.00
2018-12-30T08:41:11.683Z,97010.00
2018-12-30T08:43:46.090Z,97027.00
2018-12-30T08:46:21.221Z,97020.00
2018-12-30T08:48:54.907Z,97045.00
2018-12-30T08:51:28.577Z,97042.00
2018-12-30T08:54:01.549Z,97038.00
2018-12-30T08:56:35.386Z,97039.00
2018-12-30T08:59:09.698Z,97045.00
2018-12-30T09:01:43.709Z,97051.00
2018-12-30T09:04:16.585Z,97054.00
2018-12-30T09:06:49.512Z,97068.00
2018-12-30T09:09:22.404Z,97063.00
2018-12-30T09:11:55.222Z,97075.00
2018-12-30T09:14:27.950Z,97072.00
2018-12-30T09:17:02.410Z,97078.00
2018-12-30T09:19:35.660Z,97075.00
2018-12-30T09:22:08.907Z,97079.00
2018-12-30T09:24:41.807Z,97078.00
2018-12-30T09:27:15.262Z,97098.00
2018-12-30T09:29:49.238Z,97095.00
2018-12-30T09:32:23.716Z,97097.00
2018-12-30T09:34:57.891Z,97098.00
2018-12-30T09:37:30.810Z,97098.00
2018-12-30T09:40:03.792Z,97112.00
2018-12-30T09:42:37.892Z,97103.00
2018-12-30T09:45:10.318Z,97098.00
2018-12-30T09:47:44.571Z,97110.00
2018-12-30T09:50:19.310Z,97110.00
2018-12-30T09:52:55.762Z,97115.00
2018-12-30T09:55:29.052Z,97104.00
2018-12-30T09:58:09.156Z,97119.00
2018-12-30T10:00:42.618Z,97116.00
2018-12-30T10:03:16.390Z,97121.00
2018-12-30T10:05:49.166Z,97118.00
2018-12-30T10:08:23.005Z,97130.00
2018-12-30T10:10:56.160Z,97121.00
2018-12-30T10:13:30.114Z,97123.00
2018-12-30T10:16:03.205Z,97113.00
2018-12-30T10:18:37.817Z,97121.00
2018-12-30T10:21:11.603Z,97118.00
2018-12-30T10:23:44.501Z,97120.00
2018-12-30T10:26:17.166Z,97111.00
2018-12-30T10:28:50.443Z,97111.00
2018-12-30T10:31:24.049Z,97111.00
2018-12-30T10:33:56.369Z,97116.00
2018-12-30T10:36:29.755Z,97107.00
2018-12-30T10:39:05.948Z,97120.00
2018-12-30T10:41:40.232Z,97113.00
2018-12-30T10:44:12.717Z,97117.00
2018-12-30T10:46:45.822Z,97119.00
2018-12-30T10:49:18.043Z,97114.00
2018-12-30T10:51:50.213Z,97115.00
2018-12-30T10:54:23.381Z,97132.00
2018-12-30T10:56:55.321Z,97110.00
2018-12-30T10:59:29.122Z,97112.00
2018-12-30T11:02:02.770Z,97123.00
2018-12-30T11:04:37.296Z,97123.00
2018-12-30T11:07:11.305Z,97128.00
2018-12-30T11:09:45.314Z,97132.00
2018-12-30T11:12:18.648Z,97130.00
2018-12-30T11:14:53.122Z,97127.00
2018-12-30T11:17:25.675Z,97122.00
2018-12-30T11:19:57.686Z,97115.00
2018-12-30T11:22:30.692Z,97114.00
2018-12-30T11:25:03.597Z,97119.00
2018-12-30T11:27:37.232Z,97120.00
2018-12-30T11:30:11.083Z,97109.00
2018-12-30T11:32:43.569Z,97119.00
2018-12-30T11:35:17.802Z,97130.00
2018-12-30T11:37:51.134Z,97129.00
2018-12-30T11:40:24.649Z,97130.00
2018-12-30T11:42:58.230Z,97116.00
2018-12-30T11:45:33.921Z,97123.00
2018-12-30T11:48:07.693Z,97123.00
2018-12-30T11:50:41.692Z,97109.00
2018-12-30T11:53:15.227Z,97113.00
2018-12-30T11:55:50.393Z,97106.00
2018-12-30T11:58:24.136Z,97111.00
2018-12-30T12:00:57.312Z,97113.00
2018-12-30T12:03:31.264Z,97119.00
2018-12-30T12:06:03.655Z,97127.00
2018-12-30T12:08:36.509Z,97128.00
2018-12-30T12:11:10.197Z,97124.00
2018-12-30T12:13:43.762Z,97123.00
2018-12-30T12:16:16.430Z,97131.00
2018-12-30T12:18:49.236Z,97131.00
2018-12-30T12:21:21.832Z,97144.00
2018-12-30T12:23:53.749Z,97146.00
2018-12-30T12:26:25.605Z,97148.00
2018-12-30T12:28:59.290Z,97149.00
2018-12-30T12:31:34.234Z,97134.00
2018-12-30T12:34:07.289Z,97132.00
2018-12-30T12:36:42.300Z,97132.00
2018-12-30T12:39:20.727Z,97126.00
2018-12-30T12:41:56.684Z,97126.00
2018-12-30T12:44:32.047Z,97135.00
2018-12-30T12:47:10.547Z,97132.00
2018-12-30T12:49:46.936Z,97142.00
2018-12-30T12:52:20.180Z,97133.00
2018-12-30T12:54:52.688Z,97129.00
2018-12-30T12:57:25.338Z,97123.00
2018-12-30T12:59:58.633Z,97118.00
2018-12-30T13:02:31.466Z,97116.00
2018-12-30T13:05:05.439Z,97132.00
2018-12-30T13:07:39.085Z,97125.00
2018-12-30T13:10:14.530Z,97132.00
2018-12-30T13:12:47.457Z,97122.00
2018-12-30T13:15:21.060Z,97126.00
2018-12-30T13:17:53.349Z,97131.00
2018-12-30T13:20:26.835Z,97145.00
2018-12-30T13:23:02.274Z,97138.00
2018-12-30T13:25:36.494Z,97142.00
2018-12-30T13:28:11.925Z,97141.00
2018-12-30T13:30:46.810Z,97138.00
2018-12-30T13:33:18.865Z,97146.00
2018-12-30T13:35:51.088Z,97146.00
2018-12-30T13:38:28.242Z,97141.00
2018-12-30T13:40:57.530Z,97140.00
2018-12-30T13:43:31.389Z,97149.00
2018-12-30T13:46:04.121Z,97151.00
2018-12-30T13:48:37.020Z,97149.00
2018-12-30T13:51:10.835Z,97152.00
2018-12-30T13:53:43.489Z,97161.00
2018-12-30T13:56:16.841Z,97155.00
2018-12-30T13:58:50.422Z,97165.00
2018-12-30T14:01:24.022Z,97159.00
2018-12-30T14:03:58.483Z,97157.00
2018-12-30T14:06:32.903Z,97163.00
2018-12-30T14:09:07.938Z,97172.00
2018-12-30T14:11:42.533Z,97180.00
2018-12-30T14:14:16.823Z,97181.00
2018-12-30T14:16:50.298Z,97186.00
2018-12-30T14:19:23.455Z,97174.00
2018-12-30T14:21:57.145Z,97183.00
2018-12-30T14:24:29.827Z,97187.00
2018-12-30T14:27:03.069Z,97182.00
2018-12-30T14:29:36.095Z,97183.00
2018-12-30T14:32:10.348Z,97187.00
2018-12-30T14:34:44.936Z,97192.00
2018-12-30T14:37:19.589Z,97190.00
2018-12-30T14:39:53.321Z,97188.00
2018-12-30T14:42:28.459Z,97184.00
2018-12-30T14:45:02.096Z,97183.00
2018-12-30T14:47:36.713Z,97185.00
2018-12-30T14:50:13.663Z,97175.00
2018-12-30T14:52:47.185Z,97183.00
2018-12-30T14:55:21.151Z,97173.00
2018-12-30T14:57:54.915Z,97166.00
2018-12-30T15:00:29.633Z,97180.00
2018-12-30T15:03:02.113Z,97176.00
2018-12-30T15:05:34.701Z,97176.00
2018-12-30T15:08:07.279Z,97183.00
2018-12-30T15:10:43.903Z,97178.00
2018-12-30T15:13:17.564Z,97187.00
2018-12-30T15:15:51.479Z,97176.00
2018-12-30T15:18:24.985Z,97183.00
2018-12-30T15:20:58.282Z,97188.00
2018-12-30T15:23:32.161Z,97196.00
2018-12-30T15:26:05.620Z,97197.00
2018-12-30T15:28:38.296Z,97198.00
2018-12-30T15:31:11.065Z,97190.00
2018-12-30T15:33:45.639Z,97191.00
2018-12-30T15:36:18.735Z,96860.00
2018-12-30T15:38:53.658Z,97200.00
2018-12-30T15:41:26.985Z,97195.00
2018-12-30T15:44:01.536Z,97192.00
2018-12-30T15:46:34.087Z,97190.00
2018-12-30T15:49:06.153Z,97183.00
2018-12-30T15:51:38.454Z,97187.00
2018-12-30T15:54:11.690Z,97190.00
2018-12-30T15:56:45.038Z,97189.00
2018-12-30T15:59:26.826Z,97183.00
2018-12-30T16:02:01.111Z,97184.00
2018-12-30T16:04:35.392Z,97192.00
2018-12-30T16:07:09.524Z,97206.00
2018-12-30T16:09:43.399Z,97199.00
2018-12-30T16:12:16.968Z,97209.00
2018-12-30T16:14:53.378Z,97208.00
2018-12-30T16:17:27.101Z,97222.00
2018-12-30T16:20:00.291Z,97219.00
2018-12-30T16:22:34.114Z,97229.00
2018-12-30T16:25:09.198Z,97227.00
2018-12-30T16:27:42.612Z,97218.00
2018-12-30T16:30:15.800Z,97237.00
2018-12-30T16:32:49.516Z,97207.00
2018-12-30T16:35:22.794Z,97215.00
2018-12-30T16:37:55.017Z,97201.00
2018-12-30T16:40:30.291Z,97213.00
2018-12-30T16:43:04.236Z,97198.00
2018-12-30T16:45:38.442Z,97203.00
2018-12-30T16:48:12.605Z,97205.00
2018-12-30T16:50:47.735Z,97203.00
2018-12-30T16:53:21.509Z,97204.00
2018-12-30T16:55:54.599Z,97202.00
2018-12-30T16:58:28.146Z,97206.00
2018-12-30T17:01:03.119Z,97200.00
2018-12-30T17:03:36.608Z,97190.00
2018-12-30T17:06:11.921Z,97194.00
2018-12-30T17:08:44.891Z,97185.00
2018-12-30T17:11:18.353Z,97189.00
2018-12-30T17:13:52.762Z,97180.00
2018-12-30T17:16:26.259Z,97193.00
2018-12-30T17:19:00.207Z,97206.00
2018-12-30T17:21:34.221Z,97198.00
2018-12-30T17:24:07.157Z,97194.00
2018-12-30T17:26:41.314Z,97196.00
2018-12-30T17:29:14.825Z,97195.00
2018-12-30T17:31:48.395Z,97187.00
2018-12-30T17:34:22.026Z,97175.00
2018-12-30T17:37:02.152Z,97181.00
2018-12-30T17:39:37.280Z,97193.00
2018-12-30T17:42:11.649Z,97194.00
2018-12-30T17:44:45.325Z,97198.00
2018-12-30T17:47:18.166Z,97211.00
2018-12-30T17:49:50.323Z,97206.00
2018-12-30T17:52:23.680Z,97206.00
2018-12-30T17:54:56.531Z,97221.00
2018-12-30T17:57:29.347Z,97225.00
2018-12-30T18:00:03.756Z,97217.00
2018-12-30T18:02:37.881Z,97220.00
2018-12-30T18:05:11.991Z,97215.00
2018-12-30T18:07:44.205Z,97207.00
2018-12-30T18:10:17.702Z,97225.00
2018-12-30T18:12:52.937Z,97225.00
2018-12-30T18:15:27.909Z,97223.00
2018-12-30T18:18:01.437Z,97222.00
2018-12-30T18:20:36.080Z,97234.00
2018-12-30T18:23:10.749Z,97224.00
2018-12-30T18:25:44.644Z,97230.00
2018-12-30T18:28:18.810Z,97224.00
2018-12-30T18:30:51.623Z,97225.00
2018-12-30T18:33:24.104Z,97245.00
2018-12-30T18:35:59.690Z,97242.00
2018-12-30T18:38:32.955Z,97233.00
2018-12-30T18:41:05.661Z,97227.00
2018-12-30T18:43:38.230Z,97235.00
2018-12-30T18:46:11.505Z,97226.00
2018-12-30T18:48:53.769Z,97238.00
2018-12-30T18:51:33.173Z,97236.00
2018-12-30T18:54:05.421Z,97233.00
2018-12-30T18:56:38.994Z,97225.00
2018-12-30T18:59:14.188Z,97230.00
2018-12-30T19:01:49.334Z,97242.00
2018-12-30T19:04:21.966Z,97248.00
2018-12-30T19:06:54.222Z,97262.00
2018-12-30T19:09:26.803Z,97253.00
2018-12-30T19:11:59.475Z,97235.00
2018-12-30T19:14:34.092Z,97231.00
2018-12-30T19:17:07.768Z,97231.00
2018-12-30T19:19:42.994Z,97227.00
2018-12-30T19:22:17.330Z,97229.00
2018-12-30T19:24:51.556Z,97221.00
2018-12-30T19:27:26.574Z,97224.00
2018-12-30T19:30:01.611Z,97221.00
2018-12-30T19:32:34.166Z,97230.00
2018-12-30T19:35:14.466Z,97230.00
2018-12-30T19:37:53.068Z,97236.00
2018-12-30T19:40:28.673Z,97229.00
2018-12-30T19:43:00.857Z,97228.00
2018-12-30T19:45:33.190Z,97218.00
2018-12-30T19:48:06.393Z,97230.00
2018-12-30T19:50:40.805Z,97223.00
2018-12-30T19:53:15.289Z,97223.00
2018-12-30T19:55:49.493Z,97221.00
2018-12-30T19:58:25.213Z,97218.00
2018-12-30T20:00:59.165Z,97207.00
2018-12-30T20:03:33.038Z,97211.00
2018-12-30T20:06:05.854Z,97221.00
2018-12-30T20:08:38.026Z,97214.00
2018-12-30T20:11:11.782Z,97213.00
2018-12-30T20:13:46.262Z,97216.00
2018-12-30T20:16:20.330Z,97204.00
2018-12-30T20:18:54.280Z,97209.00
2018-12-30T20:21:29.733Z,97202.00
2018-12-30T20:24:05.085Z,97202.00
2018-12-30T20:26:38.194Z,97201.00
2018-12-30T20:29:10.473Z,97196.00
2018-12-30T20:31:44.204Z,97193.00
2018-12-30T20:34:19.130Z,97189.00
2018-12-30T20:36:53.427Z,97198.00
2018-12-30T20:39:28.260Z,97199.00
2018-12-30T20:42:00.601Z,97199.00
2018-12-30T20:44:32.744Z,97190.00
2018-12-30T20:47:05.098Z,97188.00
2018-12-30T20:49:37.242Z,97183.00
2018-12-30T20:52:09.426Z,97185.00
2018-12-30T20:54:42.823Z,97182.00
2018-12-30T20:57:16.668Z,97193.00
2018-12-30T20:59:50.128Z,97197.00
2018-12-30T21:02:24.965Z,97186.00
2018-12-30T21:04:59.335Z,97190.00
2018-12-30T21:07:37.555Z,97183.00
2018-12-30T21:10:12.512Z,97181.00
2018-12-30T21:12:47.509Z,97195.00
2018-12-30T21:15:22.372Z,97189.00
2018-12-30T21:18:00.065Z,97186.00
2018-12-30T21:20:35.659Z,97190.00
2018-12-30T21:23:12.554Z,97187.00
2018-12-30T21:25:47.250Z,97181.00
2018-12-30T21:28:29.461Z,97190.00
2018-12-30T21:31:02.532Z,97186.00
2018-12-30T21:33:34.695Z,97187.00
2018-12-30T21:36:08.721Z,97169.00
2018-12-30T21:38:43.468Z,97164.00
2018-12-30T21:41:18.104Z,97162.00
2018-12-30T21:43:53.056Z,97164.00
2018-12-30T21:46:26.695Z,97156.00
2018-12-30T21:49:00.253Z,97160.00
2018-12-30T21:51:34.247Z,97163.00
2018-12-30T21:54:08.178Z,97155.00
2018-12-30T21:56:42.768Z,97151.00
2018-12-30T21:59:17.500Z,97155.00
2018-12-30T22:01:51.853Z,97164.00
2018-12-30T22:04:25.972Z,97168.00
2018-12-30T22:06:59.979Z,97167.00
2018-12-30T22:09:34.424Z,97166.00
2018-12-30T22:12:08.498Z,97169.00
2018-12-30T22:14:42.270Z,97169.00
2018-12-30T22:17:14.902Z,97172.00
2018-12-30T22:19:47.788Z,97163.00
2018-12-30T22:22:19.871Z,97162.00
2018-12-30T22:24:51.802Z,97171.00
2018-12-30T22:27:24.251Z,97159.00
2018-12-30T22:29:56.787Z,97168.00
2018-12-30T22:32:30.546Z,97155.00
2018-12-30T22:35:02.482Z,97156.00
2018-12-30T22:37:34.701Z,97149.00
2018-12-30T22:40:08.120Z,97162.00
2018-12-30T22:42:40.740Z,97155.00
2018-12-30T22:45:13.951Z,97158.00
2018-12-30T22:47:46.181Z,97164.00
2018-12-30T22:50:19.667Z,97169.00
2018-12-30T22:52:52.670Z,97158.00
2018-12-30T22:55:25.791Z,97164.00
2018-12-30T22:57:58.151Z,97165.00
2018-12-30T23:00:48.256Z,97159.00
2018-12-30T23:03:23.935Z,97167.00
2018-12-30T23:05:58.319Z,97161.00
2018-12-30T23:08:30.855Z,97164.00
2018-12-30T23:11:07.482Z,97163.00
2018-12-30T23:13:40.748Z,97161.00
2018-12-30T23:16:13.699Z,97156.00
2018-12-30T23:18:48.361Z,97157.00
2018-12-30T23:21:24.424Z,97153.00
2018-12-30T23:23:58.889Z,97153.00
2018-12-30T23:26:31.726Z,97151.00
2018-12-30T23:29:04.795Z,97158.00
2018-12-30T23:31:37.192Z,97166.00
2018-12-30T23:34:09.546Z,97167.00
2018-12-30T23:36:43.689Z,97161.00
2018-12-30T23:39:15.735Z,97167.00
2018-12-30T23:41:48.802Z,97167.00
2018-12-30T23:44:21.475Z,97167.00
2018-12-30T23:46:54.026Z,97163.00
2018-12-30T23:49:31.673Z,97172.00
2018-12-30T23:52:04.985Z,97169.00
2018-12-30T23:54:37.286Z,97157.00
2018-12-30T23:57:09.141Z,97163.00
2018-12-30T23:59:41.281Z,97155.00
